createdAt,value
2018-09-23T00:01:01.529Z,11.82
2018-09-23T00:03:30.417Z,11.82
2018-09-23T00:05:59.613Z,11.83
2018-09-23T00:08:28.820Z,11.84
2018-09-23T00:10:58.841Z,11.81
2018-09-23T00:13:28.590Z,11.82
2018-09-23T00:15:57.851Z,11.84
2018-09-23T00:18:27.325Z,11.85
2018-09-23T00:20:56.615Z,11.84
2018-09-23T00:23:25.998Z,11.83
2018-09-23T00:25:54.851Z,11.83
2018-09-23T00:28:23.940Z,11.83
2018-09-23T00:30:52.854Z,11.82
2018-09-23T00:33:22.368Z,11.82
2018-09-23T00:35:51.725Z,11.82
2018-09-23T00:38:20.905Z,11.82
2018-09-23T00:40:50.382Z,11.79
2018-09-23T00:43:19.856Z,11.77
2018-09-23T00:45:49.100Z,11.78
2018-09-23T00:48:17.990Z,11.76
2018-09-23T00:50:46.842Z,11.74
2018-09-23T00:53:15.758Z,11.75
2018-09-23T00:55:44.727Z,11.75
2018-09-23T00:58:13.585Z,11.78
2018-09-23T01:00:42.820Z,11.78
2018-09-23T01:03:11.905Z,11.77
2018-09-23T01:05:41.386Z,11.77
2018-09-23T01:08:10.238Z,11.76
2018-09-23T01:10:39.582Z,11.77
2018-09-23T01:13:08.536Z,11.75
2018-09-23T01:15:37.724Z,11.76
2018-09-23T01:18:07.205Z,11.76
2018-09-23T01:20:36.182Z,11.77
2018-09-23T01:23:05.594Z,11.76
2018-09-23T01:25:34.752Z,11.76
2018-09-23T01:28:03.578Z,11.77
2018-09-23T01:30:32.817Z,11.74
2018-09-23T01:33:02.244Z,11.71
2018-09-23T01:35:31.687Z,11.67
2018-09-23T01:38:00.525Z,11.66
2018-09-23T01:40:36.019Z,11.67
2018-09-23T01:43:04.874Z,11.65
2018-09-23T01:45:33.718Z,11.66
2018-09-23T01:48:02.576Z,11.62
2018-09-23T01:50:31.687Z,11.57
2018-09-23T01:53:00.489Z,11.56
2018-09-23T01:55:29.621Z,11.56
2018-09-23T01:57:58.765Z,11.57
2018-09-23T02:00:27.844Z,11.58
2018-09-23T02:02:56.963Z,11.59
2018-09-23T02:05:25.925Z,11.61
2018-09-23T02:07:54.690Z,11.61
2018-09-23T02:10:23.497Z,11.61
2018-09-23T02:12:52.801Z,11.61
2018-09-23T02:15:21.673Z,11.63
2018-09-23T02:17:50.986Z,11.63
2018-09-23T02:20:20.012Z,11.65
2018-09-23T02:22:48.992Z,11.66
2018-09-23T02:25:18.020Z,11.66
2018-09-23T02:27:47.538Z,11.66
2018-09-23T02:30:16.869Z,11.66
2018-09-23T02:32:46.089Z,11.67
2018-09-23T02:35:14.985Z,11.66
2018-09-23T02:37:43.828Z,11.66
2018-09-23T02:40:13.084Z,11.67
2018-09-23T02:42:41.888Z,11.68
2018-09-23T02:45:10.727Z,11.68
2018-09-23T02:47:40.138Z,11.65
2018-09-23T02:50:09.297Z,11.64
2018-09-23T02:52:38.722Z,11.63
2018-09-23T02:55:07.605Z,11.64
2018-09-23T02:57:42.979Z,11.65
2018-09-23T03:00:11.860Z,11.64
2018-09-23T03:02:41.012Z,11.63
2018-09-23T03:05:10.226Z,11.61
2018-09-23T03:07:39.326Z,11.60
2018-09-23T03:10:08.352Z,11.61
2018-09-23T03:12:37.553Z,11.63
2018-09-23T03:15:06.442Z,11.62
2018-09-23T03:17:35.555Z,11.59
2018-09-23T03:20:04.951Z,11.57
2018-09-23T03:22:33.822Z,11.57
2018-09-23T03:25:02.938Z,11.58
2018-09-23T03:27:31.748Z,11.58
2018-09-23T03:30:00.594Z,11.57
2018-09-23T03:32:29.687Z,11.57
2018-09-23T03:34:58.527Z,11.56
2018-09-23T03:37:27.308Z,11.56
2018-09-23T03:39:57.840Z,11.54
2018-09-23T03:42:27.009Z,11.51
2018-09-23T03:44:56.137Z,11.49
2018-09-23T03:47:25.368Z,11.48
2018-09-23T03:49:54.748Z,11.48
2018-09-23T03:52:23.912Z,11.46
2018-09-23T03:54:53.013Z,11.46
2018-09-23T03:57:21.809Z,11.47
2018-09-23T03:59:50.663Z,11.44
2018-09-23T04:02:20.063Z,11.45
2018-09-23T04:04:49.601Z,11.47
2018-09-23T04:07:18.734Z,11.47
2018-09-23T04:09:48.252Z,11.46
2018-09-23T04:12:17.008Z,11.47
2018-09-23T04:14:46.082Z,11.49
2018-09-23T04:17:15.024Z,11.52
2018-09-23T04:19:44.185Z,11.53
2018-09-23T04:22:13.025Z,11.55
2018-09-23T04:24:42.139Z,11.55
2018-09-23T04:27:11.307Z,11.54
2018-09-23T04:29:40.662Z,11.52
2018-09-23T04:32:09.451Z,11.50
2018-09-23T04:34:38.905Z,11.51
2018-09-23T04:37:07.749Z,11.50
2018-09-23T04:39:36.537Z,11.50
2018-09-23T04:42:05.396Z,11.51
2018-09-23T04:44:34.525Z,11.52
2018-09-23T04:47:03.430Z,11.52
2018-09-23T04:49:32.614Z,11.53
2018-09-23T04:52:01.385Z,11.54
2018-09-23T04:54:30.937Z,11.53
2018-09-23T04:57:00.448Z,11.53
2018-09-23T04:59:29.535Z,11.50
2018-09-23T05:01:58.723Z,11.51
2018-09-23T05:04:27.679Z,11.51
2018-09-23T05:06:56.834Z,11.52
2018-09-23T05:09:25.670Z,11.51
2018-09-23T05:12:01.436Z,11.52
2018-09-23T05:14:30.568Z,11.53
2018-09-23T05:16:59.684Z,11.53
2018-09-23T05:19:28.904Z,11.54
2018-09-23T05:21:57.809Z,11.54
2018-09-23T05:24:26.935Z,11.54
2018-09-23T05:26:56.041Z,11.53
2018-09-23T05:29:24.829Z,11.53
2018-09-23T05:31:54.469Z,11.53
2018-09-23T05:34:24.661Z,11.54
2018-09-23T05:36:53.530Z,11.54
2018-09-23T05:39:23.212Z,11.52
2018-09-23T05:41:52.274Z,11.47
2018-09-23T05:44:21.528Z,11.45
2018-09-23T05:46:50.677Z,11.45
2018-09-23T05:49:19.968Z,11.46
2018-09-23T05:51:49.230Z,11.47
2018-09-23T05:54:18.566Z,11.48
2018-09-23T05:56:48.090Z,11.52
2018-09-23T05:59:17.353Z,11.50
2018-09-23T06:01:46.757Z,11.49
2018-09-23T06:04:15.615Z,11.48
2018-09-23T06:06:44.805Z,11.47
2018-09-23T06:09:13.710Z,11.47
2018-09-23T06:11:43.006Z,11.50
2018-09-23T06:14:12.130Z,11.50
2018-09-23T06:16:41.133Z,11.52
2018-09-23T06:19:10.918Z,11.52
2018-09-23T06:21:39.806Z,11.51
2018-09-23T06:24:09.062Z,11.50
2018-09-23T06:26:38.399Z,11.52
2018-09-23T06:29:07.808Z,11.54
2018-09-23T06:31:36.635Z,11.56
2018-09-23T06:34:05.823Z,11.58
2018-09-23T06:36:34.924Z,11.63
2018-09-23T06:39:05.021Z,11.68
2018-09-23T06:41:33.966Z,11.74
2018-09-23T06:44:03.478Z,11.73
2018-09-23T06:46:34.290Z,11.76
2018-09-23T06:49:03.248Z,11.77
2018-09-23T06:51:32.376Z,11.79
2018-09-23T06:54:01.672Z,11.81
2018-09-23T06:56:30.930Z,11.85
2018-09-23T06:59:00.174Z,11.88
2018-09-23T07:01:29.401Z,11.89
2018-09-23T07:03:58.304Z,11.92
2018-09-23T07:06:27.161Z,11.93
2018-09-23T07:08:56.265Z,11.96
2018-09-23T07:11:25.264Z,11.98
2018-09-23T07:13:54.652Z,12.02
2018-09-23T07:16:23.578Z,12.04
2018-09-23T07:18:59.755Z,12.07
2018-09-23T07:21:28.780Z,12.08
2018-09-23T07:23:57.898Z,12.10
2018-09-23T07:26:26.765Z,12.12
2018-09-23T07:28:55.946Z,12.16
2018-09-23T07:31:25.128Z,12.21
2018-09-23T07:33:54.318Z,12.23
2018-09-23T07:36:23.198Z,12.24
2018-09-23T07:38:52.064Z,12.30
2018-09-23T07:41:21.386Z,12.35
2018-09-23T07:43:50.722Z,12.41
2018-09-23T07:46:19.845Z,12.45
2018-09-23T07:48:48.687Z,12.51
2018-09-23T07:51:17.569Z,12.55
2018-09-23T07:53:46.919Z,12.56
2018-09-23T07:56:15.850Z,12.55
2018-09-23T07:58:45.746Z,12.56
2018-09-23T08:01:14.642Z,12.60
2018-09-23T08:03:45.449Z,12.64
2018-09-23T08:06:14.321Z,12.71
2018-09-23T08:08:43.437Z,12.75
2018-09-23T08:11:12.329Z,12.77
2018-09-23T08:13:41.344Z,12.75
2018-09-23T08:16:10.274Z,12.79
2018-09-23T08:18:39.087Z,12.85
2018-09-23T08:21:08.505Z,12.87
2018-09-23T08:23:37.676Z,12.91
2018-09-23T08:26:06.515Z,12.92
2018-09-23T08:28:35.636Z,12.95
2018-09-23T08:31:04.751Z,12.97
2018-09-23T08:33:33.943Z,12.92
2018-09-23T08:36:03.273Z,12.90
2018-09-23T08:38:32.505Z,12.88
2018-09-23T08:41:01.633Z,12.87
2018-09-23T08:43:30.984Z,12.89
2018-09-23T08:46:00.151Z,12.94
2018-09-23T08:48:29.034Z,12.99
2018-09-23T08:50:58.249Z,13.00
2018-09-23T08:53:27.131Z,13.02
2018-09-23T08:55:56.567Z,13.05
2018-09-23T08:58:25.817Z,13.09
2018-09-23T09:00:54.876Z,13.10
2018-09-23T09:03:23.983Z,13.12
2018-09-23T09:05:52.799Z,13.10
2018-09-23T09:08:21.618Z,13.11
2018-09-23T09:10:50.457Z,13.10
2018-09-23T09:13:19.909Z,13.10
2018-09-23T09:15:48.781Z,13.05
2018-09-23T09:18:17.766Z,13.06
2018-09-23T09:20:47.216Z,13.10
2018-09-23T09:23:16.067Z,13.10
2018-09-23T09:25:44.875Z,13.12
2018-09-23T09:28:13.768Z,13.15
2018-09-23T09:30:42.585Z,13.13
2018-09-23T09:33:11.782Z,13.13
2018-09-23T09:35:40.905Z,13.15
2018-09-23T09:38:10.023Z,13.16
2018-09-23T09:40:39.506Z,13.19
2018-09-23T09:43:08.544Z,13.21
2018-09-23T09:45:37.434Z,13.25
2018-09-23T09:48:06.638Z,13.23
2018-09-23T09:50:35.486Z,13.20
2018-09-23T09:53:04.297Z,13.17
2018-09-23T09:55:33.751Z,13.10
2018-09-23T09:58:02.634Z,13.08
2018-09-23T10:00:36.258Z,13.09
2018-09-23T10:03:06.533Z,13.02
2018-09-23T10:05:35.437Z,12.95
2018-09-23T10:08:04.598Z,12.87
2018-09-23T10:10:33.500Z,12.85
2018-09-23T10:13:02.394Z,12.80
2018-09-23T10:15:31.266Z,12.80
2018-09-23T10:18:00.330Z,12.78
2018-09-23T10:20:29.582Z,12.76
2018-09-23T10:22:58.777Z,12.75
2018-09-23T10:25:28.019Z,12.77
2018-09-23T10:27:57.118Z,12.76
2018-09-23T10:30:26.321Z,12.78
2018-09-23T10:32:55.334Z,12.81
2018-09-23T10:35:24.138Z,12.81
2018-09-23T10:37:53.014Z,12.82
2018-09-23T10:40:22.705Z,12.78
2018-09-23T10:42:51.543Z,12.77
2018-09-23T10:45:20.723Z,12.76
2018-09-23T10:47:49.565Z,12.74
2018-09-23T10:50:18.372Z,12.75
2018-09-23T10:52:54.038Z,12.71
2018-09-23T10:55:23.086Z,12.71
2018-09-23T10:57:52.144Z,12.76
2018-09-23T11:00:21.653Z,12.77
2018-09-23T11:02:51.065Z,12.78
2018-09-23T11:05:20.172Z,12.73
2018-09-23T11:07:49.298Z,12.73
2018-09-23T11:10:18.248Z,12.72
2018-09-23T11:12:47.059Z,12.74
2018-09-23T11:15:15.907Z,12.77
2018-09-23T11:17:44.725Z,12.73
2018-09-23T11:20:13.577Z,12.69
2018-09-23T11:22:42.597Z,12.68
2018-09-23T11:25:11.693Z,12.69
2018-09-23T11:27:41.018Z,12.67
2018-09-23T11:30:10.107Z,12.68
2018-09-23T11:32:39.749Z,12.68
2018-09-23T11:35:09.435Z,12.67
2018-09-23T11:37:39.017Z,12.63
2018-09-23T11:40:08.645Z,12.60
2018-09-23T11:42:38.563Z,12.57
2018-09-23T11:45:08.046Z,12.56
2018-09-23T11:47:37.111Z,12.53
2018-09-23T11:50:07.595Z,12.51
2018-09-23T11:52:37.732Z,12.53
2018-09-23T11:55:06.562Z,12.51
2018-09-23T11:57:35.654Z,12.52
2018-09-23T12:00:04.671Z,12.53
2018-09-23T12:02:34.018Z,12.54
2018-09-23T12:05:02.910Z,12.51
2018-09-23T12:07:32.921Z,12.45
2018-09-23T12:10:02.534Z,12.43
2018-09-23T12:12:31.748Z,12.45
2018-09-23T12:15:01.069Z,12.44
2018-09-23T12:17:30.277Z,12.49
2018-09-23T12:19:59.454Z,12.54
2018-09-23T12:22:29.615Z,12.58
2018-09-23T12:24:58.756Z,12.57
2018-09-23T12:27:28.684Z,12.55
2018-09-23T12:29:57.713Z,12.57
2018-09-23T12:32:26.573Z,12.53
2018-09-23T12:34:55.864Z,12.48
2018-09-23T12:37:24.749Z,12.48
2018-09-23T12:39:54.020Z,12.48
2018-09-23T12:42:23.245Z,12.48
2018-09-23T12:44:52.092Z,12.46
2018-09-23T12:47:21.290Z,12.43
2018-09-23T12:49:50.842Z,12.36
2018-09-23T12:52:20.095Z,12.37
2018-09-23T12:54:49.749Z,12.39
2018-09-23T12:57:19.106Z,12.39
2018-09-23T12:59:48.034Z,12.40
2018-09-23T13:02:17.160Z,12.39
2018-09-23T13:04:46.297Z,12.39
2018-09-23T13:07:16.749Z,12.34
2018-09-23T13:09:45.743Z,12.30
2018-09-23T13:12:14.665Z,12.29
2018-09-23T13:14:44.024Z,12.29
2018-09-23T13:17:15.089Z,12.28
2018-09-23T13:19:45.042Z,12.27
2018-09-23T13:22:14.115Z,12.28
2018-09-23T13:24:45.278Z,12.30
2018-09-23T13:27:14.733Z,12.30
2018-09-23T13:29:43.780Z,12.29
2018-09-23T13:32:12.733Z,12.31
2018-09-23T13:34:41.890Z,12.34
2018-09-23T13:37:10.951Z,12.31
2018-09-23T13:39:40.855Z,12.30
2018-09-23T13:42:09.658Z,12.29
2018-09-23T13:44:38.875Z,12.27
2018-09-23T13:47:08.523Z,12.23
2018-09-23T13:49:37.471Z,12.21
2018-09-23T13:52:06.966Z,12.14
2018-09-23T13:54:36.136Z,12.09
2018-09-23T13:57:05.651Z,12.06
2018-09-23T13:59:34.493Z,12.07
2018-09-23T14:02:03.937Z,12.08
2018-09-23T14:04:39.733Z,12.11
2018-09-23T14:07:08.733Z,12.10
2018-09-23T14:09:37.969Z,12.10
2018-09-23T14:12:07.204Z,12.00
2018-09-23T14:14:36.253Z,12.02
2018-09-23T14:17:05.612Z,12.00
2018-09-23T14:19:34.946Z,11.99
2018-09-23T14:22:03.956Z,12.01
2018-09-23T14:24:33.260Z,12.01
2018-09-23T14:27:02.285Z,11.94
2018-09-23T14:29:31.373Z,11.92
2018-09-23T14:32:00.613Z,11.90
2018-09-23T14:34:29.461Z,11.86
2018-09-23T14:36:58.600Z,11.88
2018-09-23T14:39:27.671Z,11.88
2018-09-23T14:41:56.945Z,11.87
2018-09-23T14:44:25.804Z,11.87
2018-09-23T14:46:55.036Z,11.87
2018-09-23T14:49:24.255Z,11.83
2018-09-23T14:51:53.622Z,11.86
2018-09-23T14:54:22.853Z,11.77
2018-09-23T14:56:53.030Z,11.79
2018-09-23T14:59:22.570Z,11.79
2018-09-23T15:01:51.620Z,11.76
2018-09-23T15:04:20.626Z,11.72
2018-09-23T15:06:49.617Z,11.73
2018-09-23T15:09:18.930Z,11.68
2018-09-23T15:11:51.165Z,11.66
2018-09-23T15:14:20.646Z,11.68
2018-09-23T15:16:50.610Z,11.65
2018-09-23T15:19:19.731Z,11.63
2018-09-23T15:21:49.238Z,11.60
2018-09-23T15:24:18.120Z,11.55
2018-09-23T15:26:47.259Z,11.53
2018-09-23T15:29:16.313Z,11.48
2018-09-23T15:31:45.491Z,11.44
2018-09-23T15:34:16.078Z,11.41
2018-09-23T15:36:44.942Z,11.26
2018-09-23T15:39:13.948Z,11.25
2018-09-23T15:41:44.208Z,11.22
2018-09-23T15:44:14.251Z,11.10
2018-09-23T15:46:43.314Z,11.08
2018-09-23T15:49:12.663Z,11.08
2018-09-23T15:51:41.541Z,11.10
2018-09-23T15:54:10.790Z,11.12
2018-09-23T15:56:40.061Z,11.09
2018-09-23T15:59:09.538Z,11.10
2018-09-23T16:01:39.200Z,11.09
2018-09-23T16:04:09.338Z,10.97
2018-09-23T16:06:38.213Z,11.03
2018-09-23T16:09:09.424Z,11.02
2018-09-23T16:11:38.896Z,10.96
2018-09-23T16:14:08.781Z,11.00
2018-09-23T16:16:37.854Z,11.03
2018-09-23T16:19:07.003Z,11.01
2018-09-23T16:21:35.843Z,11.03
2018-09-23T16:24:05.225Z,11.09
2018-09-23T16:26:34.571Z,11.09
2018-09-23T16:29:04.291Z,11.08
2018-09-23T16:31:33.461Z,11.08
2018-09-23T16:34:02.886Z,11.11
2018-09-23T16:36:31.821Z,11.04
2018-09-23T16:39:00.638Z,11.00
2018-09-23T16:41:29.459Z,11.00
2018-09-23T16:43:58.748Z,11.00
2018-09-23T16:46:27.533Z,11.01
2018-09-23T16:48:56.815Z,11.00
2018-09-23T16:51:26.088Z,11.00
2018-09-23T16:53:55.156Z,11.01
2018-09-23T16:56:24.298Z,11.03
2018-09-23T16:58:53.428Z,11.01
2018-09-23T17:01:22.556Z,10.99
2018-09-23T17:03:51.765Z,10.96
2018-09-23T17:06:20.562Z,10.99
2018-09-23T17:08:49.365Z,10.99
2018-09-23T17:11:18.563Z,11.01
2018-09-23T17:13:47.619Z,11.01
2018-09-23T17:16:17.640Z,10.98
2018-09-23T17:18:46.517Z,11.00
2018-09-23T17:21:15.388Z,11.01
2018-09-23T17:23:44.637Z,10.99
2018-09-23T17:26:13.798Z,10.98
2018-09-23T17:28:42.692Z,10.96
2018-09-23T17:31:12.526Z,10.91
2018-09-23T17:33:41.658Z,10.88
2018-09-23T17:36:10.507Z,10.86
2018-09-23T17:38:39.722Z,10.87
2018-09-23T17:41:09.424Z,10.84
2018-09-23T17:43:38.617Z,10.84
2018-09-23T17:46:07.841Z,10.81
2018-09-23T17:48:36.808Z,10.78
2018-09-23T17:51:06.215Z,10.80
2018-09-23T17:53:35.345Z,10.78
2018-09-23T17:56:04.998Z,10.79
2018-09-23T17:58:34.616Z,10.74
2018-09-23T18:01:03.892Z,10.74
2018-09-23T18:03:33.577Z,10.75
2018-09-23T18:06:02.780Z,10.71
2018-09-23T18:08:32.203Z,10.67
2018-09-23T18:11:01.072Z,10.64
2018-09-23T18:13:29.913Z,10.62
2018-09-23T18:15:59.110Z,10.61
2018-09-23T18:18:28.275Z,10.57
2018-09-23T18:20:57.376Z,10.59
2018-09-23T18:23:27.130Z,10.57
2018-09-23T18:25:56.254Z,10.58
2018-09-23T18:28:25.677Z,10.57
2018-09-23T18:31:00.957Z,10.59
2018-09-23T18:33:31.043Z,10.60
2018-09-23T18:36:00.137Z,10.60
2018-09-23T18:38:29.617Z,10.56
2018-09-23T18:40:58.956Z,10.55
2018-09-23T18:43:28.106Z,10.57
2018-09-23T18:45:57.764Z,10.60
2018-09-23T18:48:26.962Z,10.55
2018-09-23T18:50:56.707Z,10.56
2018-09-23T18:53:26.674Z,10.60
2018-09-23T18:55:56.759Z,10.58
2018-09-23T18:58:26.436Z,10.59
2018-09-23T19:00:55.553Z,10.55
2018-09-23T19:03:24.938Z,10.53
2018-09-23T19:05:54.021Z,10.51
2018-09-23T19:08:23.857Z,10.51
2018-09-23T19:10:54.080Z,10.49
2018-09-23T19:13:28.591Z,10.45
2018-09-23T19:16:02.698Z,10.44
2018-09-23T19:18:32.122Z,10.43
2018-09-23T19:21:01.595Z,10.39
2018-09-23T19:23:31.019Z,10.38
2018-09-23T19:26:00.234Z,10.33
2018-09-23T19:28:30.411Z,10.30
2018-09-23T19:30:59.538Z,10.25
2018-09-23T19:33:29.816Z,10.27
2018-09-23T19:35:59.234Z,10.21
2018-09-23T19:38:29.081Z,10.17
2018-09-23T19:40:58.167Z,10.13
2018-09-23T19:43:27.781Z,10.12
2018-09-23T19:45:57.073Z,10.11
2018-09-23T19:48:26.068Z,10.06
2018-09-23T19:50:55.498Z,10.04
2018-09-23T19:53:24.765Z,10.03
2018-09-23T19:55:53.598Z,9.99
2018-09-23T19:58:22.622Z,9.97
2018-09-23T20:00:52.466Z,9.98
2018-09-23T20:03:21.356Z,9.92
2018-09-23T20:05:50.390Z,9.90
2018-09-23T20:08:19.273Z,9.92
2018-09-23T20:10:48.095Z,9.95
2018-09-23T20:13:16.949Z,9.95
2018-09-23T20:15:45.839Z,9.96
2018-09-23T20:18:14.986Z,9.96
2018-09-23T20:20:44.169Z,9.94
2018-09-23T20:23:13.307Z,9.93
2018-09-23T20:25:42.688Z,9.90
2018-09-23T20:28:12.353Z,9.89
2018-09-23T20:30:41.247Z,9.90
2018-09-23T20:33:10.552Z,9.87
2018-09-23T20:35:39.397Z,9.85
2018-09-23T20:38:08.214Z,9.86
2018-09-23T20:40:37.327Z,9.84
2018-09-23T20:43:06.704Z,9.80
2018-09-23T20:45:35.523Z,9.77
2018-09-23T20:48:04.677Z,9.72
2018-09-23T20:50:33.798Z,9.69
2018-09-23T20:53:02.681Z,9.67
2018-09-23T20:55:31.482Z,9.65
2018-09-23T20:58:00.326Z,9.64
2018-09-23T21:00:29.957Z,9.63
2018-09-23T21:02:58.822Z,9.62
2018-09-23T21:05:27.753Z,9.63
2018-09-23T21:07:56.812Z,9.62
2018-09-23T21:10:25.987Z,9.61
2018-09-23T21:12:54.869Z,9.60
2018-09-23T21:15:23.740Z,9.58
2018-09-23T21:17:52.574Z,9.55
2018-09-23T21:20:21.766Z,9.53
2018-09-23T21:22:51.210Z,9.49
2018-09-23T21:25:20.363Z,9.46
2018-09-23T21:27:49.288Z,9.46
2018-09-23T21:30:18.368Z,9.45
2018-09-23T21:32:47.252Z,9.42
2018-09-23T21:35:22.324Z,9.41
2018-09-23T21:37:51.536Z,9.38
2018-09-23T21:40:20.395Z,9.38
2018-09-23T21:42:49.248Z,9.36
2018-09-23T21:45:18.406Z,9.33
2018-09-23T21:47:47.248Z,9.30
2018-09-23T21:50:16.565Z,9.28
2018-09-23T21:52:46.042Z,9.24
2018-09-23T21:55:15.248Z,9.23
2018-09-23T21:57:44.798Z,9.22
2018-09-23T22:00:13.620Z,9.26
2018-09-23T22:02:45.337Z,9.24
2018-09-23T22:05:14.868Z,9.22
2018-09-23T22:07:44.286Z,9.21
2018-09-23T22:10:13.460Z,9.16
2018-09-23T22:12:42.669Z,9.13
2018-09-23T22:15:16.690Z,9.03
2018-09-23T22:17:45.540Z,8.98
2018-09-23T22:20:14.365Z,8.98
2018-09-23T22:22:43.569Z,8.99
2018-09-23T22:25:12.920Z,8.98
2018-09-23T22:27:42.248Z,8.99
2018-09-23T22:30:11.385Z,9.02
2018-09-23T22:32:40.426Z,9.01
2018-09-23T22:35:09.812Z,9.02
2018-09-23T22:37:38.644Z,9.01
2018-09-23T22:40:08.220Z,9.03
2018-09-23T22:42:38.352Z,9.05
2018-09-23T22:45:07.763Z,9.02
2018-09-23T22:47:36.830Z,9.00
2018-09-23T22:50:06.379Z,8.98
2018-09-23T22:52:35.265Z,8.94
2018-09-23T22:55:04.573Z,8.92
2018-09-23T22:57:33.662Z,8.88
2018-09-23T23:00:02.533Z,8.86
2018-09-23T23:02:31.391Z,8.85
2018-09-23T23:05:00.265Z,8.81
2018-09-23T23:07:33.326Z,8.79
2018-09-23T23:10:02.192Z,8.78
2018-09-23T23:12:31.005Z,8.83
2018-09-23T23:15:00.495Z,8.84
2018-09-23T23:17:29.901Z,8.85
2018-09-23T23:19:58.766Z,8.91
2018-09-23T23:22:28.161Z,8.97
2018-09-23T23:24:56.957Z,8.97
2018-09-23T23:27:26.396Z,8.98
2018-09-23T23:29:55.476Z,8.96
2018-09-23T23:32:24.681Z,8.97
2018-09-23T23:34:53.784Z,8.95
2018-09-23T23:37:22.652Z,8.97
2018-09-23T23:39:51.507Z,8.96
2018-09-23T23:42:20.652Z,8.90
2018-09-23T23:44:49.485Z,8.92
2018-09-23T23:47:18.646Z,8.90
2018-09-23T23:49:47.750Z,8.88
2018-09-23T23:52:16.610Z,8.88
2018-09-23T23:54:45.780Z,8.90
2018-09-23T23:57:14.831Z,8.91
2018-09-23T23:59:43.659Z,8.93
